Time;durP1;ratioP1;P1;durP2;ratioP2;P2;SDS_P1;SDS_P2;PMS_P1;PMS_P2;Temp;Humidity;BMP_temperature;BMP_pressure;BME280_temperature;BME280_humidity;BME280_pressure;Samples;Min_cycle;Max_cycle;Signal;HPM_P1;HPM_P2
2022/03/18 00:00:21;;;;;;;8.88;8.13;;;19.40;49.70;;;;;;4979437;28;20218;-69
2022/03/18 00:02:52;;;;;;;8.43;7.72;;;19.40;49.70;;;;;;5012634;28;20196;-69
2022/03/18 00:05:18;;;;;;;8.43;7.72;;;19.40;49.70;;;;;;4978996;28;20211;-69
2022/03/18 00:07:45;;;;;;;8.40;7.45;;;19.40;49.70;;;;;;4995130;28;20184;-68
2022/03/18 00:10:17;;;;;;;8.10;7.40;;;19.40;49.70;;;;;;5012799;28;20184;-69
2022/03/18 00:12:44;;;;;;;8.07;7.38;;;19.40;49.70;;;;;;4995316;28;20180;-69
2022/03/18 00:15:12;;;;;;;8.25;7.50;;;19.40;49.70;;;;;;4995293;28;20208;-69
2022/03/18 00:17:39;;;;;;;8.23;7.43;;;19.40;49.70;;;;;;5012664;28;20180;-68
2022/03/18 00:20:08;;;;;;;8.48;7.78;;;19.40;49.70;;;;;;4979205;28;20568;-69
2022/03/18 00:22:34;;;;;;;8.70;8.00;;;19.40;49.70;;;;;;4994847;28;20249;-69
2022/03/18 00:25:00;;;;;;;8.50;7.72;;;19.40;49.70;;;;;;4978782;28;20216;-69
2022/03/18 00:27:27;;;;;;;9.80;9.00;;;19.40;49.70;;;;;;4994904;28;20211;-68
2022/03/18 00:29:54;;;;;;;8.85;8.15;;;19.40;49.70;;;;;;5011252;28;20251;-69
2022/03/18 00:32:24;;;;;;;9.77;8.90;;;19.40;49.70;;;;;;4978597;28;20223;-69
2022/03/18 00:34:50;;;;;;;9.43;8.63;;;19.40;49.70;;;;;;4994882;28;20593;-69
2022/03/18 00:37:16;;;;;;;9.05;8.35;;;19.40;49.70;;;;;;4979081;28;20179;-69
2022/03/18 00:39:43;;;;;;;10.70;9.70;;;19.40;49.70;;;;;;4978798;28;20556;-69
2022/03/18 00:42:09;;;;;;;10.23;9.25;;;19.40;49.60;;;;;;4994920;28;20215;-69
2022/03/18 00:44:35;;;;;;;9.57;8.77;;;19.40;49.70;;;;;;4994742;28;20700;-69
2022/03/18 00:47:01;;;;;;;9.45;8.60;;;19.40;49.70;;;;;;4978742;28;20184;-69
2022/03/18 00:52:14;;;;;;;7.53;6.93;;;19.40;49.70;;;;;;4997102;28;20691;-69
2022/03/18 00:54:44;;;;;;;7.78;7.13;;;19.40;49.60;;;;;;4998874;28;20200;-69
2022/03/18 00:57:12;;;;;;;8.02;7.32;;;19.40;49.70;;;;;;4998989;28;20227;-69
2022/03/18 00:59:39;;;;;;;8.90;8.13;;;19.40;49.60;;;;;;4998638;28;20203;-69
2022/03/18 01:02:05;;;;;;;7.57;6.97;;;19.40;49.60;;;;;;5016130;28;20188;-69
2022/03/18 01:04:31;;;;;;;8.15;7.45;;;19.40;49.60;;;;;;4982163;28;20224;-69
2022/03/18 01:06:58;;;;;;;8.55;7.80;;;19.40;49.70;;;;;;4998601;28;20195;-69
2022/03/18 01:09:26;;;;;;;8.75;8.02;;;19.40;49.60;;;;;;4998809;28;20282;-69
2022/03/18 01:11:54;;;;;;;9.43;8.63;;;19.40;49.60;;;;;;4982092;28;20587;-69
2022/03/18 01:14:21;;;;;;;9.38;8.48;;;19.40;49.60;;;;;;4982202;28;20231;-69
2022/03/18 01:16:47;;;;;;;10.07;9.23;;;19.40;49.60;;;;;;4982344;28;20278;-69
2022/03/18 01:19:13;;;;;;;9.13;8.43;;;19.40;49.60;;;;;;4998518;28;20291;-69
2022/03/18 01:21:39;;;;;;;9.10;8.30;;;19.40;49.60;;;;;;4998401;28;20188;-68
2022/03/18 01:24:05;;;;;;;9.25;8.52;;;19.40;49.60;;;;;;4981886;28;20230;-68
2022/03/18 01:26:31;;;;;;;10.30;9.40;;;19.40;49.60;;;;;;4998251;28;20187;-68
2022/03/18 01:28:58;;;;;;;8.98;8.27;;;19.40;49.60;;;;;;5015675;28;20184;-69
2022/03/18 01:31:24;;;;;;;9.73;8.93;;;19.40;49.60;;;;;;4998254;28;20652;-68
2022/03/18 01:33:50;;;;;;;8.82;8.10;;;19.40;49.60;;;;;;4997919;28;20203;-69
2022/03/18 01:36:16;;;;;;;7.95;7.35;;;19.40;49.60;;;;;;4998844;28;20187;-69
2022/03/18 01:38:42;;;;;;;7.63;6.95;;;19.40;49.60;;;;;;5001119;28;20191;-69
2022/03/18 01:41:09;;;;;;;7.90;7.20;;;19.40;49.60;;;;;;5034052;28;20194;-69
2022/03/18 01:43:47;;;;;;;7.85;7.15;;;19.40;49.60;;;;;;5017044;28;20680;-69
2022/03/18 01:46:16;;;;;;;7.72;7.13;;;19.40;49.60;;;;;;5014352;28;20188;-68
2022/03/18 01:48:43;;;;;;;7.60;6.97;;;19.40;49.60;;;;;;4998038;28;20192;-69
2022/03/18 01:51:09;;;;;;;8.45;7.75;;;19.40;49.60;;;;;;4981365;28;20180;-68
2022/03/18 01:53:38;;;;;;;7.63;7.03;;;19.40;49.60;;;;;;4997351;28;20219;-69
2022/03/18 01:56:06;;;;;;;8.65;7.82;;;19.40;49.60;;;;;;4997240;28;20198;-68
2022/03/18 01:58:32;;;;;;;9.13;8.32;;;19.40;49.60;;;;;;5014739;28;20188;-68
2022/03/18 02:01:01;;;;;;;8.57;7.88;;;19.40;49.60;;;;;;4997151;28;20222;-69
2022/03/18 02:03:27;;;;;;;8.45;7.75;;;19.40;49.60;;;;;;5014631;28;20318;-69
2022/03/18 02:05:53;;;;;;;9.40;8.60;;;19.40;49.60;;;;;;4997471;28;20598;-69
2022/03/18 02:08:20;;;;;;;9.23;8.43;;;19.40;49.60;;;;;;5015049;28;20665;-69
2022/03/18 02:10:46;;;;;;;8.85;7.95;;;19.40;49.60;;;;;;4997692;28;20179;-69
2022/03/18 02:13:12;;;;;;;8.57;7.88;;;19.40;49.60;;;;;;4980993;28;20200;-69
2022/03/18 02:15:39;;;;;;;10.32;9.43;;;19.40;49.60;;;;;;4981270;28;20207;-68
2022/03/18 02:18:05;;;;;;;8.95;8.13;;;19.40;49.60;;;;;;4980831;28;20220;-69
2022/03/18 02:20:34;;;;;;;8.32;7.63;;;19.40;49.60;;;;;;4980995;28;20661;-69
2022/03/18 02:23:03;;;;;;;7.85;7.25;;;19.40;49.60;;;;;;4997202;28;20212;-69
2022/03/18 02:25:30;;;;;;;6.68;6.18;;;19.40;49.60;;;;;;5033212;23;20289;-63
2022/03/18 02:28:04;;;;;;;7.53;6.93;;;19.40;49.60;;;;;;5016614;28;20291;-63
2022/03/18 02:30:34;;;;;;;7.68;7.07;;;19.40;49.60;;;;;;5034389;28;20171;-63
2022/03/18 02:33:02;;;;;;;7.47;6.88;;;19.40;49.60;;;;;;5016274;28;20191;-63
2022/03/18 02:35:28;;;;;;;6.90;6.40;;;19.40;49.60;;;;;;5034188;28;20199;-64
2022/03/18 02:37:56;;;;;;;8.15;7.35;;;19.40;49.60;;;;;;5033033;28;20192;-63
2022/03/18 02:40:25;;;;;;;7.63;6.93;;;19.40;49.60;;;;;;5000327;28;20202;-63
2022/03/18 02:42:51;;;;;;;7.93;7.22;;;19.40;49.60;;;;;;5032696;28;20299;-62
2022/03/18 02:45:17;;;;;;;8.95;8.18;;;19.40;49.60;;;;;;5016265;28;20199;-63
2022/03/18 02:47:42;;;;;;;8.15;7.45;;;19.40;49.60;;;;;;5016209;28;20209;-63
2022/03/18 02:50:09;;;;;;;8.00;7.40;;;19.40;49.60;;;;;;5016440;28;20222;-63
2022/03/18 02:52:35;;;;;;;8.40;7.70;;;19.40;49.60;;;;;;4999918;28;20183;-63
2022/03/18 02:55:01;;;;;;;9.52;8.73;;;19.40;49.60;;;;;;5016027;28;20218;-62
2022/03/18 02:57:27;;;;;;;9.73;8.82;;;19.40;49.60;;;;;;5032395;28;20195;-63
2022/03/18 02:59:53;;;;;;;9.68;8.88;;;19.40;49.60;;;;;;5008611;28;20281;-63
2022/03/18 03:02:18;;;;;;;9.27;8.45;;;19.40;49.60;;;;;;4999617;28;20179;-63
2022/03/18 03:10:17;;;;;;;7.13;6.55;;;19.40;49.60;;;;;;5021526;28;20179;-63
2022/03/18 03:12:43;;;;;;;7.20;6.60;;;19.40;49.60;;;;;;4999114;28;20286;-63
2022/03/18 03:15:10;;;;;;;7.35;6.75;;;19.40;49.60;;;;;;5015297;28;20207;-63
2022/03/18 03:17:36;;;;;;;7.43;6.82;;;19.40;49.60;;;;;;5016079;28;20187;-63
2022/03/18 03:20:02;;;;;;;7.13;6.53;;;19.40;49.60;;;;;;5033344;28;20198;-63
2022/03/18 03:22:30;;;;;;;7.53;6.93;;;19.40;49.60;;;;;;5015216;28;20195;-63
2022/03/18 03:24:57;;;;;;;8.45;7.75;;;19.40;49.60;;;;;;5015601;28;20294;-62
2022/03/18 03:27:29;;;;;;;7.95;7.25;;;19.40;49.60;;;;;;5015866;28;20179;-63
2022/03/18 03:30:04;;;;;;;8.57;7.88;;;19.40;49.60;;;;;;5015505;28;20620;-64
2022/03/18 03:32:30;;;;;;;10.55;9.75;;;19.40;49.60;;;;;;4999029;28;20187;-63
2022/03/18 03:34:57;;;;;;;8.93;8.13;;;19.40;49.60;;;;;;5015602;28;20580;-63
2022/03/18 03:37:25;;;;;;;9.05;8.35;;;19.40;49.60;;;;;;5012299;28;20556;-63
2022/03/18 03:39:51;;;;;;;9.15;8.35;;;19.40;49.60;;;;;;4995776;28;20207;-62
2022/03/18 03:42:18;;;;;;;8.57;7.78;;;19.40;49.60;;;;;;4995932;28;20184;-63
2022/03/18 03:44:43;;;;;;;8.00;7.30;;;19.40;49.60;;;;;;4995741;28;20243;-63
2022/03/18 03:47:09;;;;;;;8.13;7.53;;;19.40;49.60;;;;;;4979338;28;20230;-65
2022/03/18 03:49:35;;;;;;;7.68;7.07;;;19.40;49.60;;;;;;4995694;28;20263;-66
2022/03/18 03:52:00;;;;;;;8.35;7.65;;;19.40;49.60;;;;;;4995347;28;20731;-65
2022/03/18 03:54:29;;;;;;;7.40;6.75;;;19.40;49.60;;;;;;4995571;28;20204;-66
2022/03/18 03:56:55;;;;;;;7.45;6.85;;;19.40;49.60;;;;;;4995437;28;20188;-64
2022/03/18 03:59:22;;;;;;;8.13;7.43;;;19.40;49.60;;;;;;4995571;28;20276;-65
2022/03/18 04:01:47;;;;;;;7.70;7.10;;;19.40;49.60;;;;;;4995155;28;20235;-65
2022/03/18 04:04:13;;;;;;;7.68;7.07;;;19.40;49.60;;;;;;4979001;28;20259;-66
2022/03/18 04:06:39;;;;;;;7.45;6.78;;;19.40;49.60;;;;;;4995102;28;20213;-65
2022/03/18 04:09:05;;;;;;;7.88;7.18;;;19.40;49.60;;;;;;4994933;28;20267;-66
2022/03/18 04:11:31;;;;;;;7.75;7.07;;;19.40;49.60;;;;;;4978764;28;20195;-65
2022/03/18 04:13:57;;;;;;;8.30;7.60;;;19.40;49.60;;;;;;5012516;28;20176;-65
2022/03/18 04:16:23;;;;;;;8.63;7.88;;;19.40;49.60;;;;;;4995492;28;20184;-65
2022/03/18 04:18:49;;;;;;;9.02;8.25;;;19.40;49.60;;;;;;4995311;28;20191;-65
2022/03/18 04:21:15;;;;;;;9.80;9.00;;;19.40;49.60;;;;;;4995200;28;20172;-66
2022/03/18 04:23:43;;;;;;;9.00;8.23;;;19.40;49.60;;;;;;4994876;28;20208;-65
2022/03/18 04:26:09;;;;;;;11.05;10.05;;;19.40;49.60;;;;;;4993956;28;20226;-65
2022/03/18 04:28:35;;;;;;;10.43;9.52;;;19.40;49.60;;;;;;4994973;28;20188;-65
2022/03/18 04:31:01;;;;;;;9.65;8.85;;;19.40;49.60;;;;;;4995158;28;20195;-65
2022/03/18 04:33:26;;;;;;;10.30;9.40;;;19.40;49.60;;;;;;4995018;28;20192;-65
2022/03/18 04:35:52;;;;;;;10.50;9.60;;;19.40;49.60;;;;;;4995102;28;20231;-66
2022/03/18 04:38:18;;;;;;;10.63;9.73;;;19.40;49.60;;;;;;4978704;28;20219;-66
2022/03/18 04:40:44;;;;;;;9.52;8.73;;;19.50;49.70;;;;;;4995292;28;20180;-65
2022/03/18 04:43:11;;;;;;;9.07;8.27;;;19.40;49.60;;;;;;4994589;28;20289;-65
2022/03/18 04:45:37;;;;;;;8.63;7.93;;;19.40;49.60;;;;;;4994761;28;20214;-65
2022/03/18 04:48:03;;;;;;;8.15;7.45;;;19.40;49.60;;;;;;4994916;28;20188;-65
2022/03/18 04:50:29;;;;;;;8.48;7.78;;;19.40;49.60;;;;;;4994826;28;20242;-65
2022/03/18 04:52:56;;;;;;;8.75;7.95;;;19.40;49.60;;;;;;4978776;28;20176;-65
2022/03/18 04:55:22;;;;;;;8.25;7.55;;;19.40;49.60;;;;;;4994679;28;20211;-65
2022/03/18 04:57:48;;;;;;;8.48;7.78;;;19.40;49.60;;;;;;5012493;28;20184;-65
2022/03/18 05:00:15;;;;;;;8.68;7.97;;;19.40;49.60;;;;;;4995086;28;20191;-65
2022/03/18 05:02:43;;;;;;;9.30;8.50;;;19.40;49.50;;;;;;4994569;28;20196;-65
2022/03/18 05:05:10;;;;;;;8.68;7.97;;;19.40;49.60;;;;;;4994600;28;20226;-66
2022/03/18 05:07:40;;;;;;;9.07;8.27;;;19.40;49.60;;;;;;4994707;28;20267;-66
2022/03/18 05:10:08;;;;;;;9.80;9.00;;;19.40;49.50;;;;;;4978821;28;20188;-65
2022/03/18 05:12:33;;;;;;;10.50;9.57;;;19.40;49.50;;;;;;4994386;28;20534;-65
2022/03/18 05:14:59;;;;;;;10.85;9.77;;;19.40;49.60;;;;;;4994641;28;20254;-65
2022/03/18 05:17:25;;;;;;;12.43;11.32;;;19.40;49.50;;;;;;4978648;28;20196;-65
2022/03/18 05:19:51;;;;;;;11.98;10.82;;;19.40;49.50;;;;;;4994414;28;20692;-65
2022/03/18 05:22:17;;;;;;;11.30;10.30;;;19.40;49.50;;;;;;5011972;28;20177;-65
2022/03/18 05:24:43;;;;;;;12.23;11.02;;;19.40;49.50;;;;;;4978329;28;20219;-65
2022/03/18 05:27:09;;;;;;;12.00;10.90;;;19.40;49.40;;;;;;4978486;28;20279;-66
2022/03/18 05:29:35;;;;;;;12.35;11.25;;;19.40;49.50;;;;;;4994669;28;20184;-65
2022/03/18 05:32:02;;;;;;;11.70;10.60;;;19.40;49.50;;;;;;4978047;28;20184;-65
2022/03/18 05:34:29;;;;;;;10.52;9.63;;;19.40;49.40;;;;;;4994386;28;20732;-65
2022/03/18 05:36:55;;;;;;;10.30;9.40;;;19.40;49.40;;;;;;5013929;28;20187;-65
2022/03/18 05:39:21;;;;;;;9.75;8.88;;;19.40;49.40;;;;;;5001303;28;20198;-65
2022/03/18 05:41:48;;;;;;;10.55;9.55;;;19.40;49.50;;;;;;5033888;28;20183;-64
2022/03/18 05:44:14;;;;;;;9.95;9.13;;;19.40;49.40;;;;;;5017550;28;20218;-66
2022/03/18 05:46:40;;;;;;;9.30;8.48;;;19.40;49.40;;;;;;5001036;28;20187;-66
2022/03/18 05:49:07;;;;;;;9.48;8.60;;;19.40;49.40;;;;;;5017436;28;20237;-66
2022/03/18 05:51:33;;;;;;;9.20;8.48;;;19.40;49.50;;;;;;5017566;28;20183;-66
2022/03/18 05:53:59;;;;;;;9.75;8.95;;;19.40;49.40;;;;;;5000727;28;20191;-66
2022/03/18 05:59:12;;;;;;;10.65;9.73;;;19.40;49.40;;;;;;5035192;28;20186;-65
2022/03/18 06:01:38;;;;;;;12.55;11.38;;;19.40;49.40;;;;;;5033607;28;20187;-65
2022/03/18 06:04:06;;;;;;;11.95;10.95;;;19.40;49.40;;;;;;5000809;28;20215;-65
2022/03/18 06:06:32;;;;;;;12.65;11.40;;;19.40;49.40;;;;;;5000728;28;20184;-65
2022/03/18 06:11:51;;;;;;;12.55;11.38;;;19.40;49.40;;;;;;5016932;28;20175;-66
2022/03/18 06:14:20;;;;;;;10.52;9.63;;;19.40;49.40;;;;;;5000581;28;20206;-66
2022/03/18 06:16:51;;;;;;;11.00;10.00;;;19.50;49.50;;;;;;5000546;28;20195;-66
2022/03/18 06:19:19;;;;;;;10.90;10.00;;;19.40;49.40;;;;;;5000943;28;20291;-66
2022/03/18 06:21:46;;;;;;;10.80;9.90;;;19.50;49.50;;;;;;5016928;28;20229;-65
2022/03/18 06:24:13;;;;;;;10.52;9.63;;;19.40;49.40;;;;;;5032760;28;20215;-66
2022/03/18 06:26:39;;;;;;;10.70;9.80;;;19.40;49.40;;;;;;5000739;28;20175;-66
2022/03/18 06:29:06;;;;;;;10.10;9.20;;;19.50;49.50;;;;;;5016711;28;20205;-66
2022/03/18 06:31:35;;;;;;;11.13;10.02;;;19.40;49.40;;;;;;5016572;28;20179;-66
2022/03/18 06:34:01;;;;;;;11.38;10.38;;;19.50;49.50;;;;;;5016364;28;20180;-67
2022/03/18 06:36:28;;;;;;;11.18;10.18;;;19.50;49.50;;;;;;5000535;28;20305;-66
2022/03/18 06:38:54;;;;;;;11.75;10.65;;;19.40;49.40;;;;;;5000142;28;20191;-66
2022/03/18 06:41:20;;;;;;;13.23;12.02;;;19.50;49.50;;;;;;5016553;28;20193;-66
2022/03/18 06:43:47;;;;;;;15.32;13.73;;;19.50;49.50;;;;;;5032817;28;20289;-65
2022/03/18 06:46:16;;;;;;;13.88;12.60;;;19.40;49.40;;;;;;5016331;28;20167;-66
2022/03/18 06:48:43;;;;;;;14.88;13.48;;;19.50;49.40;;;;;;5015392;28;20184;-65
2022/03/18 06:51:10;;;;;;;15.07;13.57;;;19.50;49.40;;;;;;5000003;28;20274;-66
2022/03/18 06:53:36;;;;;;;15.45;14.00;;;19.50;49.40;;;;;;4999695;28;20187;-66
2022/03/18 06:56:04;;;;;;;14.23;12.90;;;19.40;49.30;;;;;;5016063;28;20203;-66
2022/03/18 06:58:31;;;;;;;14.18;12.80;;;19.50;49.40;;;;;;4999699;28;20198;-66
2022/03/18 07:00:57;;;;;;;12.57;11.38;;;19.50;49.50;;;;;;5032542;28;20187;-66
2022/03/18 07:03:23;;;;;;;11.85;10.85;;;19.40;49.30;;;;;;5015841;28;20261;-66
2022/03/18 07:05:48;;;;;;;11.07;10.07;;;19.50;49.40;;;;;;5016133;28;20207;-67
2022/03/18 07:08:15;;;;;;;11.50;10.48;;;19.50;49.40;;;;;;5033630;28;20179;-66
2022/03/18 07:10:41;;;;;;;12.43;11.27;;;19.50;49.40;;;;;;5032336;28;20175;-66
2022/03/18 07:13:09;;;;;;;11.65;10.63;;;19.50;49.40;;;;;;5015731;28;20232;-66
2022/03/18 07:15:35;;;;;;;11.27;10.27;;;19.50;49.40;;;;;;4999546;28;20215;-66
2022/03/18 07:18:01;;;;;;;12.50;11.40;;;19.50;49.40;;;;;;5019050;28;20187;-65
2022/03/18 07:20:38;;;;;;;11.55;10.55;;;19.50;49.30;;;;;;5035397;28;20193;-66
2022/03/18 07:23:09;;;;;;;11.75;10.75;;;19.40;49.20;;;;;;5051807;28;20198;-65
2022/03/18 07:25:41;;;;;;;13.55;12.25;;;19.50;49.30;;;;;;5035292;28;20256;-65
2022/03/18 07:28:09;;;;;;;13.23;12.02;;;19.40;49.20;;;;;;5015250;28;20190;-66
2022/03/18 07:30:36;;;;;;;15.10;13.65;;;19.50;49.20;;;;;;5015901;28;20168;-66
2022/03/18 07:33:03;;;;;;;15.07;13.57;;;19.50;49.20;;;;;;5032021;28;20195;-65
2022/03/18 07:35:30;;;;;;;15.00;13.45;;;19.50;49.20;;;;;;5031824;28;20763;-66
2022/03/18 07:37:56;;;;;;;15.75;14.35;;;19.50;49.20;;;;;;5031431;28;20242;-65
2022/03/18 07:40:22;;;;;;;12.93;11.65;;;19.50;49.20;;;;;;5015198;28;20277;-66
2022/03/18 07:42:49;;;;;;;13.43;12.13;;;19.50;49.20;;;;;;5031750;28;20239;-66
2022/03/18 07:45:31;;;;;;;12.88;11.68;;;19.50;49.20;;;;;;5015222;28;20203;-66
2022/03/18 07:48:02;;;;;;;12.27;11.18;;;19.50;49.10;;;;;;5015410;28;20258;-65
2022/03/18 07:50:30;;;;;;;11.82;10.73;;;19.50;49.10;;;;;;5031673;28;20233;-66
2022/03/18 07:53:02;;;;;;;11.65;10.65;;;19.50;49.10;;;;;;5013485;28;20218;-66
2022/03/18 07:55:31;;;;;;;11.57;10.52;;;19.50;49.10;;;;;;4979092;28;20207;-66
2022/03/18 07:57:58;;;;;;;12.55;11.38;;;19.60;49.10;;;;;;5024437;28;20191;-66
2022/03/18 08:00:25;;;;;;;11.82;10.73;;;19.60;49.10;;;;;;5012139;28;20187;-65
2022/03/18 08:02:53;;;;;;;11.90;10.80;;;19.50;49.00;;;;;;5007885;28;20211;-65
2022/03/18 08:05:20;;;;;;;13.43;12.23;;;19.50;49.00;;;;;;5031524;28;20207;-64
2022/03/18 08:07:46;;;;;;;13.27;12.05;;;19.60;49.10;;;;;;5014472;28;20198;-66
2022/03/18 08:10:14;;;;;;;12.75;11.55;;;19.60;49.10;;;;;;5034606;28;20175;-66
2022/03/18 08:12:42;;;;;;;13.40;12.18;;;19.60;49.10;;;;;;5005133;28;20188;-66
2022/03/18 08:15:15;;;;;;;13.45;12.15;;;19.60;49.10;;;;;;4995262;28;20208;-66
2022/03/18 08:17:43;;;;;;;13.60;12.30;;;19.60;49.10;;;;;;4986053;28;20183;-66
2022/03/18 08:20:12;;;;;;;12.65;11.52;;;19.60;49.00;;;;;;5011340;28;20215;-66
2022/03/18 08:22:39;;;;;;;12.15;11.05;;;19.60;49.00;;;;;;4994713;28;20267;-66
2022/03/18 08:25:07;;;;;;;11.57;10.48;;;19.60;49.00;;;;;;4996280;23;20311;-67
2022/03/18 08:27:33;;;;;;;13.07;11.77;;;19.60;49.00;;;;;;4976107;28;20251;-67
2022/03/18 08:30:01;;;;;;;12.30;11.20;;;19.60;49.00;;;;;;4991539;28;20239;-67
2022/03/18 08:32:28;;;;;;;12.32;11.13;;;19.60;49.00;;;;;;4991634;28;20177;-66
2022/03/18 08:34:56;;;;;;;11.80;10.70;;;19.60;49.00;;;;;;4984847;28;20267;-67
2022/03/18 08:40:08;;;;;;;10.98;9.98;;;19.60;49.00;;;;;;4991582;28;20239;-66
2022/03/18 08:42:34;;;;;;;10.70;9.80;;;19.60;49.00;;;;;;4983887;28;20216;-66
2022/03/18 08:45:02;;;;;;;11.40;10.40;;;19.60;48.90;;;;;;4959058;28;20324;-66
2022/03/18 08:47:27;;;;;;;12.65;11.35;;;19.60;48.90;;;;;;4992318;28;20181;-66
2022/03/18 08:49:53;;;;;;;12.15;11.10;;;19.70;49.00;;;;;;4959206;28;20189;-66
2022/03/18 08:52:19;;;;;;;11.73;10.73;;;19.60;48.90;;;;;;4975222;28;20189;-66
2022/03/18 08:54:45;;;;;;;12.30;11.15;;;19.60;48.90;;;;;;4975240;28;20240;-66
2022/03/18 08:57:11;;;;;;;11.77;10.68;;;19.70;49.00;;;;;;4958879;28;20181;-66
2022/03/18 08:59:37;;;;;;;12.88;11.68;;;19.60;48.90;;;;;;4991619;28;20666;-67
2022/03/18 09:02:03;;;;;;;12.05;10.95;;;19.60;48.90;;;;;;4991647;28;20272;-66
2022/03/18 09:04:29;;;;;;;12.20;11.18;;;19.60;48.90;;;;;;4992449;28;20216;-67
2022/03/18 09:06:54;;;;;;;12.20;11.00;;;19.60;48.90;;;;;;4992566;28;20181;-67
2022/03/18 09:09:20;;;;;;;11.70;10.70;;;19.60;48.90;;;;;;4974778;28;20180;-66
2022/03/18 09:11:46;;;;;;;10.85;9.85;;;19.70;48.90;;;;;;4963968;28;20505;-66
2022/03/18 09:14:12;;;;;;;11.57;10.48;;;19.70;49.00;;;;;;4978787;28;20284;-66
2022/03/18 09:16:38;;;;;;;11.60;10.55;;;19.70;49.00;;;;;;4962912;28;20263;-66
2022/03/18 09:19:06;;;;;;;10.77;9.77;;;19.60;48.90;;;;;;4969960;28;20195;-66
2022/03/18 09:21:32;;;;;;;10.95;9.95;;;19.60;48.90;;;;;;4995249;28;20181;-67
2022/03/18 09:23:58;;;;;;;10.23;9.32;;;19.60;48.90;;;;;;4962367;28;20299;-67
2022/03/18 09:26:24;;;;;;;10.90;9.90;;;19.60;48.90;;;;;;4968236;28;20302;-67
2022/03/18 09:28:50;;;;;;;10.07;9.18;;;19.60;48.90;;;;;;4966271;28;20271;-66
2022/03/18 09:31:16;;;;;;;11.35;10.35;;;19.60;48.90;;;;;;4998419;28;20180;-67
2022/03/18 09:33:43;;;;;;;11.05;10.05;;;19.60;48.80;;;;;;4995001;28;20207;-66
2022/03/18 09:36:10;;;;;;;10.27;9.38;;;19.70;48.90;;;;;;4978528;28;20236;-66
2022/03/18 09:38:37;;;;;;;9.82;8.95;;;19.70;48.90;;;;;;4962049;28;20189;-67
2022/03/18 09:41:06;;;;;;;10.43;9.52;;;19.60;48.80;;;;;;4962411;28;20189;-66
2022/03/18 09:43:37;;;;;;;12.10;11.00;;;19.70;48.90;;;;;;4985733;28;20327;-66
2022/03/18 09:46:06;;;;;;;12.18;11.07;;;19.70;48.90;;;;;;4998762;28;20693;-66
2022/03/18 09:48:32;;;;;;;12.20;11.10;;;19.60;48.80;;;;;;4965738;28;20263;-66
2022/03/18 09:50:58;;;;;;;12.00;10.82;;;19.60;48.80;;;;;;4971767;28;20283;-66
2022/03/18 09:53:25;;;;;;;11.63;10.52;;;19.60;48.80;;;;;;4979935;28;20184;-66
2022/03/18 09:55:52;;;;;;;11.52;10.43;;;19.70;48.90;;;;;;4973429;28;20211;-66
2022/03/18 09:58:22;;;;;;;12.05;10.88;;;19.70;49.40;;;;;;4959159;28;20228;-66
2022/03/18 10:00:50;;;;;;;10.55;9.60;;;19.70;48.80;;;;;;4974998;28;20201;-66
2022/03/18 10:03:19;;;;;;;10.82;9.77;;;19.60;48.70;;;;;;4995886;28;20219;-67
2022/03/18 10:05:58;;;;;;;10.18;9.18;;;19.60;48.70;;;;;;4997414;28;20227;-66
2022/03/18 10:08:33;;;;;;;9.90;9.00;;;19.60;48.70;;;;;;4986335;28;20231;-66
2022/03/18 10:10:59;;;;;;;10.27;9.38;;;19.60;48.70;;;;;;4995335;28;20177;-67
2022/03/18 10:13:24;;;;;;;10.43;9.52;;;19.60;49.20;;;;;;4988073;28;20199;-67
2022/03/18 10:15:52;;;;;;;10.57;9.65;;;19.70;48.70;;;;;;4997178;28;20259;-66
2022/03/18 10:18:18;;;;;;;9.40;8.60;;;19.70;48.70;;;;;;4986865;28;20197;-66
2022/03/18 10:20:45;;;;;;;10.35;9.45;;;19.70;48.70;;;;;;4977866;28;20216;-67
2022/03/18 10:23:14;;;;;;;11.38;10.30;;;19.70;48.70;;;;;;4976768;28;20224;-66
2022/03/18 10:25:50;;;;;;;10.45;9.55;;;19.70;48.70;;;;;;4976967;28;20216;-67
2022/03/18 10:28:43;;;;;;;10.63;9.73;;;19.70;48.70;;;;;;4977552;28;20202;-67
2022/03/18 10:31:21;;;;;;;11.48;10.27;;;19.70;48.70;;;;;;4977457;28;20196;-66
2022/03/18 10:37:12;;;;;;;10.20;9.20;;;19.70;48.60;;;;;;5014518;28;20263;-66
2022/03/18 10:39:45;;;;;;;10.10;9.20;;;19.70;48.60;;;;;;4942510;28;20181;-66
2022/03/18 10:42:17;;;;;;;10.27;9.38;;;19.70;48.60;;;;;;4942300;28;20186;-66
2022/03/18 10:44:48;;;;;;;10.82;9.82;;;19.80;48.60;;;;;;4975223;28;20221;-66
2022/03/18 10:47:32;;;;;;;11.05;10.02;;;19.80;48.60;;;;;;4963146;28;20219;-67
2022/03/18 10:50:10;;;;;;;10.18;9.20;;;19.80;48.70;;;;;;4994522;28;20534;-66
2022/03/18 10:52:59;;;;;;;10.63;9.68;;;19.80;49.30;;;;;;4978958;28;20279;-66
2022/03/18 10:55:34;;;;;;;10.57;9.57;;;19.80;48.60;;;;;;4977055;28;20215;-66
2022/03/18 10:58:12;;;;;;;10.55;9.48;;;19.80;48.60;;;;;;4993272;28;20184;-67
2022/03/18 11:00:49;;;;;;;10.60;9.70;;;19.70;48.50;;;;;;4993210;28;20242;-66
2022/03/18 11:03:15;;;;;;;10.82;9.93;;;19.70;48.50;;;;;;4976784;28;20287;-67
2022/03/18 11:05:45;;;;;;;10.35;9.45;;;19.80;48.60;;;;;;4994325;28;20201;-66
2022/03/18 11:08:22;;;;;;;10.95;9.95;;;19.70;48.50;;;;;;4971288;28;20196;-66
2022/03/18 11:11:15;;;;;;;11.18;10.10;;;19.80;48.60;;;;;;4976859;28;20243;-66
2022/03/18 11:14:06;;;;;;;9.95;9.05;;;19.80;48.50;;;;;;4968655;28;20181;-66
2022/03/18 11:16:41;;;;;;;9.55;8.65;;;19.80;48.60;;;;;;4976552;28;20212;-67
2022/03/18 11:19:10;;;;;;;10.80;9.70;;;19.80;48.50;;;;;;4989474;28;20219;-66
2022/03/18 11:21:38;;;;;;;10.30;9.40;;;19.80;48.50;;;;;;4992804;28;20777;-66
2022/03/18 11:24:20;;;;;;;10.23;9.32;;;19.70;48.50;;;;;;4991241;28;20204;-66
2022/03/18 11:26:49;;;;;;;11.32;10.23;;;19.80;48.50;;;;;;4986429;28;20179;-67
2022/03/18 11:29:23;;;;;;;10.45;9.55;;;19.80;48.60;;;;;;4978244;28;20189;-66
2022/03/18 11:32:15;;;;;;;10.43;9.55;;;19.80;48.60;;;;;;4960446;28;20185;-66
2022/03/18 11:34:50;;;;;;;9.70;8.80;;;19.80;48.50;;;;;;4959743;28;20587;-67
2022/03/18 11:37:18;;;;;;;9.82;9.00;;;19.80;48.50;;;;;;4976157;28;20184;-66
2022/03/18 11:39:46;;;;;;;9.13;8.30;;;19.80;48.60;;;;;;4964025;28;20180;-66
2022/03/18 11:42:18;;;;;;;9.25;8.45;;;19.80;48.60;;;;;;4976233;28;20185;-66
2022/03/18 11:44:50;;;;;;;10.10;9.18;;;19.80;48.50;;;;;;4960066;28;20764;-66
2022/03/18 11:47:30;;;;;;;9.60;8.82;;;19.80;48.60;;;;;;4993141;28;20234;-68
2022/03/18 11:50:02;;;;;;;11.02;10.00;;;19.80;48.60;;;;;;4992593;28;20227;-69
2022/03/18 11:52:28;;;;;;;10.55;9.55;;;19.80;48.50;;;;;;4992208;28;20231;-69
2022/03/18 11:55:07;;;;;;;11.55;10.45;;;19.80;48.50;;;;;;4988793;28;20231;-69
2022/03/18 11:57:47;;;;;;;9.82;8.80;;;19.80;48.40;;;;;;5000707;28;20188;-68
2022/03/18 12:00:41;;;;;;;10.02;9.13;;;19.80;48.50;;;;;;4975966;28;20246;-69
2022/03/18 12:03:07;;;;;;;9.43;8.63;;;19.80;48.50;;;;;;4976482;28;20259;-69
2022/03/18 12:05:33;;;;;;;10.13;9.23;;;19.80;48.50;;;;;;4993333;28;20205;-70
2022/03/18 12:07:59;;;;;;;9.77;8.85;;;19.80;48.50;;;;;;4961239;28;20193;-69
2022/03/18 12:10:39;;;;;;;10.27;9.32;;;19.80;48.50;;;;;;4975879;28;20231;-69
2022/03/18 12:13:05;;;;;;;10.00;9.10;;;19.80;48.50;;;;;;4983575;28;20275;-69
2022/03/18 12:15:39;;;;;;;10.65;9.65;;;19.80;48.50;;;;;;4988696;28;20208;-69
2022/03/18 12:18:06;;;;;;;9.02;8.23;;;19.80;48.50;;;;;;4999188;28;20572;-69
2022/03/18 12:20:38;;;;;;;10.32;9.40;;;19.80;48.60;;;;;;4963178;28;20180;-69
2022/03/18 12:23:09;;;;;;;10.93;9.90;;;19.80;48.50;;;;;;4961193;28;20190;-69
2022/03/18 12:25:39;;;;;;;9.65;8.77;;;19.80;48.70;;;;;;4989389;28;20209;-69
2022/03/18 12:28:06;;;;;;;9.25;8.40;;;19.80;48.60;;;;;;4979965;28;20185;-69
2022/03/18 12:30:32;;;;;;;9.55;8.65;;;19.80;48.60;;;;;;4989570;28;20181;-69
2022/03/18 12:33:05;;;;;;;9.55;8.70;;;19.80;48.50;;;;;;4975081;28;20185;-69
2022/03/18 12:35:34;;;;;;;10.10;9.20;;;19.80;48.50;;;;;;4997736;28;20204;-69
2022/03/18 12:38:13;;;;;;;9.52;8.63;;;19.80;48.50;;;;;;4991281;28;20207;-69
2022/03/18 12:40:54;;;;;;;9.10;8.30;;;19.80;48.50;;;;;;4994806;28;20187;-69
2022/03/18 12:43:20;;;;;;;9.82;8.93;;;19.80;48.50;;;;;;4994486;28;20216;-69
2022/03/18 12:45:46;;;;;;;9.75;8.82;;;19.80;48.50;;;;;;4965155;28;20216;-69
2022/03/18 12:48:20;;;;;;;10.45;9.50;;;19.80;48.50;;;;;;4958224;28;20284;-69
2022/03/18 12:50:54;;;;;;;10.52;9.52;;;19.80;48.50;;;;;;4985547;28;20176;-69
2022/03/18 12:53:23;;;;;;;10.77;9.77;;;19.80;48.50;;;;;;4989926;28;20187;-69
2022/03/18 12:55:55;;;;;;;10.88;9.88;;;19.80;48.40;;;;;;4979263;28;20278;-69
2022/03/18 12:58:39;;;;;;;9.57;8.57;;;19.80;48.40;;;;;;4964381;28;20176;-69
2022/03/18 13:01:06;;;;;;;10.02;9.13;;;19.80;48.40;;;;;;4979316;28;20195;-69
2022/03/18 13:03:34;;;;;;;9.40;8.57;;;19.80;48.50;;;;;;4959714;28;20220;-69